createdAt,value
2023-05-21T00:00:57.353Z,21.63
2023-05-21T00:02:04.361Z,21.45
2023-05-21T00:03:14.312Z,22.58
2023-05-21T00:04:17.896Z,21.45
2023-05-21T00:05:21.658Z,22.52
2023-05-21T00:06:24.011Z,22.60
2023-05-21T00:07:26.343Z,21.95
2023-05-21T00:08:29.133Z,21.38
2023-05-21T00:09:31.831Z,22.13
2023-05-21T00:10:34.540Z,22.52
2023-05-21T00:11:36.978Z,22.40
2023-05-21T00:12:39.394Z,21.30
2023-05-21T00:13:41.733Z,21.92
2023-05-21T00:14:44.391Z,23.15
2023-05-21T00:15:46.763Z,22.20
2023-05-21T00:16:49.785Z,21.23
2023-05-21T00:17:52.289Z,21.75
2023-05-21T00:18:54.814Z,21.23
2023-05-21T00:19:57.229Z,21.75
2023-05-21T00:20:59.572Z,22.85
2023-05-21T00:22:04.794Z,22.13
2023-05-21T00:23:07.282Z,22.13
2023-05-21T00:24:09.673Z,20.75
2023-05-21T00:25:12.384Z,23.13
2023-05-21T00:26:14.685Z,22.70
2023-05-21T00:27:17.814Z,22.02
2023-05-21T00:28:20.090Z,22.27
2023-05-21T00:29:23.088Z,21.77
2023-05-21T00:30:25.769Z,23.40
2023-05-21T00:31:28.273Z,23.58
2023-05-21T00:32:31.022Z,23.65
2023-05-21T00:33:37.173Z,22.00
2023-05-21T00:34:39.577Z,22.65
2023-05-21T00:35:42.061Z,21.92
2023-05-21T00:36:45.994Z,23.55
2023-05-21T00:37:50.407Z,23.27
2023-05-21T00:38:52.914Z,22.85
2023-05-21T00:39:57.569Z,22.05
2023-05-21T00:41:02.816Z,21.85
2023-05-21T00:42:05.417Z,21.73
2023-05-21T00:43:10.412Z,21.83
2023-05-21T00:44:14.202Z,22.80
2023-05-21T00:45:16.815Z,23.88
2023-05-21T00:46:21.116Z,23.30
2023-05-21T00:47:23.744Z,23.83
2023-05-21T00:48:26.414Z,21.73
2023-05-21T00:49:30.120Z,23.30
2023-05-21T00:50:33.689Z,22.42
2023-05-21T00:51:36.463Z,21.60
2023-05-21T00:52:42.425Z,21.95
2023-05-21T00:53:45.622Z,22.52
2023-05-21T00:54:49.872Z,21.88
2023-05-21T00:55:52.298Z,23.20
2023-05-21T00:56:55.155Z,21.98
2023-05-21T00:57:57.435Z,22.77
2023-05-21T00:58:59.974Z,21.42
2023-05-21T01:00:02.344Z,23.17
2023-05-21T01:01:07.344Z,22.83
2023-05-21T01:02:09.814Z,22.75
2023-05-21T01:03:12.654Z,22.67
2023-05-21T01:04:15.098Z,22.90
2023-05-21T01:05:18.199Z,23.88
2023-05-21T01:06:21.470Z,22.60
2023-05-21T01:07:23.787Z,23.20
2023-05-21T01:08:29.105Z,23.45
2023-05-21T01:09:31.674Z,22.98
2023-05-21T01:10:35.098Z,24.08
2023-05-21T01:11:41.374Z,23.80
2023-05-21T01:12:44.604Z,25.60
2023-05-21T01:13:49.671Z,23.73
2023-05-21T01:14:52.741Z,22.92
2023-05-21T01:15:55.405Z,22.90
2023-05-21T01:16:58.690Z,23.77
2023-05-21T01:18:01.188Z,23.27
2023-05-21T01:19:05.625Z,22.48
2023-05-21T01:20:10.458Z,24.10
2023-05-21T01:21:13.856Z,23.95
2023-05-21T01:22:18.920Z,25.35
2023-05-21T01:23:21.777Z,24.20
2023-05-21T01:24:24.765Z,23.00
2023-05-21T01:25:27.371Z,22.70
2023-05-21T01:26:30.774Z,23.38
2023-05-21T01:27:33.080Z,24.67
2023-05-21T01:28:35.401Z,25.45
2023-05-21T01:29:37.736Z,22.92
2023-05-21T01:30:42.756Z,23.80
2023-05-21T01:32:11.848Z,26.42
2023-05-21T01:33:23.444Z,25.08
2023-05-21T01:34:48.704Z,22.88
2023-05-21T01:35:56.280Z,23.00
2023-05-21T01:37:14.198Z,23.23
2023-05-21T01:38:25.104Z,25.08
2023-05-21T01:39:33.061Z,24.50
2023-05-21T01:40:59.145Z,23.98
2023-05-21T01:42:05.830Z,24.05
2023-05-21T01:43:09.674Z,23.10
2023-05-21T01:44:13.236Z,23.10
2023-05-21T01:45:17.803Z,25.17
2023-05-21T01:46:25.942Z,22.30
2023-05-21T01:47:30.513Z,22.73
2023-05-21T01:48:33.230Z,25.40
2023-05-21T01:49:35.962Z,21.95
2023-05-21T01:50:40.761Z,24.08
2023-05-21T01:51:44.138Z,22.45
2023-05-21T01:52:51.729Z,23.30
2023-05-21T01:53:54.554Z,23.85
2023-05-21T01:54:57.928Z,22.88
2023-05-21T01:56:00.918Z,23.02
2023-05-21T01:57:04.039Z,22.40
2023-05-21T01:58:06.536Z,23.00
2023-05-21T01:59:09.189Z,23.48
2023-05-21T02:00:12.844Z,22.95
2023-05-21T02:01:18.062Z,23.00
2023-05-21T02:02:20.443Z,24.70
2023-05-21T02:03:26.983Z,23.30
2023-05-21T02:04:29.901Z,22.38
2023-05-21T02:05:32.418Z,24.38
2023-05-21T02:06:37.100Z,23.25
2023-05-21T02:07:40.567Z,22.50
2023-05-21T02:08:42.925Z,24.15
2023-05-21T02:09:45.547Z,24.63
2023-05-21T02:10:47.872Z,23.73
2023-05-21T02:11:50.184Z,23.67
2023-05-21T02:12:52.675Z,23.38
2023-05-21T02:13:56.339Z,23.33
2023-05-21T02:14:58.712Z,23.92
2023-05-21T02:16:01.837Z,23.58
2023-05-21T02:17:04.333Z,24.58
2023-05-21T02:18:06.720Z,23.48
2023-05-21T02:19:10.703Z,23.92
2023-05-21T02:20:14.042Z,22.67
2023-05-21T02:21:16.559Z,22.77
2023-05-21T02:22:18.914Z,23.95
2023-05-21T02:23:21.433Z,23.90
2023-05-21T02:24:25.657Z,23.20
2023-05-21T02:25:28.010Z,24.58
2023-05-21T02:26:30.425Z,23.48
2023-05-21T02:27:35.387Z,24.00
2023-05-21T02:28:38.902Z,23.40
2023-05-21T02:29:41.439Z,23.60
2023-05-21T02:30:43.871Z,23.23
2023-05-21T02:31:46.556Z,24.52
2023-05-21T02:32:50.092Z,26.50
2023-05-21T02:33:52.421Z,25.30
2023-05-21T02:34:54.758Z,25.80
2023-05-21T02:35:57.264Z,24.67
2023-05-21T02:36:59.576Z,25.40
2023-05-21T02:38:03.291Z,25.63
2023-05-21T02:39:05.918Z,25.88
2023-05-21T02:40:10.397Z,25.33
2023-05-21T02:41:12.930Z,23.92
2023-05-21T02:42:15.418Z,24.35
2023-05-21T02:43:18.279Z,25.42
2023-05-21T02:44:21.120Z,24.13
2023-05-21T02:45:23.585Z,25.77
2023-05-21T02:46:26.178Z,25.58
2023-05-21T02:47:30.629Z,24.98
2023-05-21T02:48:33.163Z,24.38
2023-05-21T02:49:35.665Z,23.27
2023-05-21T02:50:38.138Z,24.63
2023-05-21T02:51:40.740Z,23.88
2023-05-21T02:52:43.374Z,23.75
2023-05-21T02:53:45.782Z,23.97
2023-05-21T02:54:48.815Z,24.25
2023-05-21T02:55:51.300Z,24.42
2023-05-21T02:56:53.566Z,24.25
2023-05-21T02:57:56.046Z,23.48
2023-05-21T02:58:58.441Z,23.75
2023-05-21T03:00:01.111Z,24.42
2023-05-21T03:01:03.959Z,23.05
2023-05-21T03:02:06.854Z,23.38
2023-05-21T03:03:09.308Z,23.13
2023-05-21T03:04:11.937Z,23.33
2023-05-21T03:05:14.320Z,23.70
2023-05-21T03:06:16.925Z,25.35
2023-05-21T03:07:20.153Z,24.15
2023-05-21T03:08:22.731Z,23.95
2023-05-21T03:09:25.097Z,23.83
2023-05-21T03:10:27.513Z,23.90
2023-05-21T03:11:29.817Z,24.90
2023-05-21T03:12:32.193Z,23.13
2023-05-21T03:13:35.233Z,23.60
2023-05-21T03:14:39.378Z,23.37
2023-05-21T03:15:42.006Z,22.33
2023-05-21T03:16:44.923Z,23.55
2023-05-21T03:17:48.552Z,23.83
2023-05-21T03:18:50.988Z,24.00
2023-05-21T03:19:55.134Z,24.75
2023-05-21T03:20:59.195Z,23.63
2023-05-21T03:22:02.938Z,24.58
2023-05-21T03:23:06.061Z,24.55
2023-05-21T03:24:09.880Z,25.42
2023-05-21T03:25:13.018Z,24.55
2023-05-21T03:26:15.831Z,23.50
2023-05-21T03:27:18.372Z,22.30
2023-05-21T03:28:21.561Z,23.63
2023-05-21T03:29:25.679Z,23.88
2023-05-21T03:30:28.396Z,23.38
2023-05-21T03:32:05.515Z,24.42
2023-05-21T03:33:08.837Z,24.55
2023-05-21T03:34:11.703Z,23.93
2023-05-21T03:35:14.045Z,24.17
2023-05-21T03:36:17.928Z,24.92
2023-05-21T03:37:20.352Z,24.80
2023-05-21T03:38:24.075Z,24.42
2023-05-21T03:39:26.564Z,23.63
2023-05-21T03:40:31.023Z,24.40
2023-05-21T03:41:33.527Z,24.05
2023-05-21T03:42:45.382Z,24.52
2023-05-21T03:43:47.976Z,22.83
2023-05-21T03:44:50.349Z,23.98
2023-05-21T03:46:11.225Z,25.35
2023-05-21T03:47:13.668Z,24.27
2023-05-21T03:48:16.210Z,25.33
2023-05-21T03:49:18.601Z,23.83
2023-05-21T03:50:20.925Z,23.83
2023-05-21T03:51:23.283Z,23.25
2023-05-21T03:52:25.693Z,23.30
2023-05-21T03:53:28.073Z,23.27
2023-05-21T03:54:30.532Z,23.92
2023-05-21T03:55:37.717Z,24.20
2023-05-21T03:56:40.807Z,24.08
2023-05-21T03:57:43.243Z,24.30
2023-05-21T03:58:45.989Z,23.08
2023-05-21T03:59:48.345Z,22.90
2023-05-21T04:00:51.553Z,24.13
2023-05-21T04:01:54.272Z,24.07
2023-05-21T04:02:57.033Z,23.07
2023-05-21T04:03:59.575Z,23.52
2023-05-21T04:05:03.576Z,23.52
2023-05-21T04:06:06.065Z,23.08
2023-05-21T04:07:15.597Z,23.90
2023-05-21T04:08:18.039Z,23.60
2023-05-21T04:09:20.421Z,23.42
2023-05-21T04:10:23.289Z,23.90
2023-05-21T04:11:26.394Z,24.40
2023-05-21T04:12:28.712Z,22.17
2023-05-21T04:13:31.080Z,24.08
2023-05-21T04:14:34.371Z,24.08
2023-05-21T04:15:36.940Z,24.20
2023-05-21T04:16:39.884Z,23.55
2023-05-21T04:17:42.231Z,23.13
2023-05-21T04:18:45.900Z,25.17
2023-05-21T04:19:49.336Z,23.40
2023-05-21T04:20:52.066Z,23.10
2023-05-21T04:21:54.410Z,22.75
2023-05-21T04:22:56.992Z,23.90
2023-05-21T04:24:01.054Z,23.20
2023-05-21T04:25:12.438Z,24.02
2023-05-21T04:26:16.465Z,24.45
2023-05-21T04:27:19.450Z,23.27
2023-05-21T04:28:21.888Z,23.77
2023-05-21T04:29:26.089Z,22.88
2023-05-21T04:30:28.529Z,22.83
2023-05-21T04:31:33.062Z,21.88
2023-05-21T04:32:36.280Z,23.20
2023-05-21T04:33:38.642Z,22.80
2023-05-21T04:34:40.979Z,23.55
2023-05-21T04:35:44.783Z,23.50
2023-05-21T04:36:48.965Z,23.33
2023-05-21T04:37:52.394Z,23.88
2023-05-21T04:38:55.336Z,22.83
2023-05-21T04:39:58.124Z,23.88
2023-05-21T04:41:04.152Z,23.48
2023-05-21T04:42:11.188Z,23.98
2023-05-21T04:43:14.197Z,22.48
2023-05-21T04:44:16.573Z,22.80
2023-05-21T04:45:21.356Z,22.90
2023-05-21T04:46:25.574Z,22.50
2023-05-21T04:47:30.575Z,25.42
2023-05-21T04:48:33.077Z,22.88
2023-05-21T04:49:35.431Z,23.85
2023-05-21T04:50:37.777Z,24.83
2023-05-21T04:51:40.212Z,24.33
2023-05-21T04:52:42.755Z,23.17
2023-05-21T04:53:45.072Z,23.48
2023-05-21T04:54:48.420Z,23.25
2023-05-21T04:55:50.772Z,24.48
2023-05-21T04:56:53.553Z,23.00
2023-05-21T04:57:55.990Z,22.92
2023-05-21T04:58:59.064Z,24.35
2023-05-21T05:00:02.097Z,22.25
2023-05-21T05:01:09.683Z,21.75
2023-05-21T05:02:11.996Z,23.15
2023-05-21T05:03:16.494Z,22.25
2023-05-21T05:04:19.624Z,23.15
2023-05-21T05:05:21.965Z,21.88
2023-05-21T05:06:26.097Z,21.63
2023-05-21T05:07:31.630Z,21.73
2023-05-21T05:08:34.214Z,23.77
2023-05-21T05:09:36.553Z,22.52
2023-05-21T05:10:39.124Z,21.95
2023-05-21T05:11:41.735Z,22.42
2023-05-21T05:12:44.426Z,23.15
2023-05-21T05:13:48.127Z,22.08
2023-05-21T05:14:50.617Z,23.00
2023-05-21T05:15:54.812Z,23.60
2023-05-21T05:17:00.934Z,22.17
2023-05-21T05:18:07.028Z,24.25
2023-05-21T05:19:09.615Z,22.05
2023-05-21T05:20:13.784Z,21.58
2023-05-21T05:21:16.333Z,20.88
2023-05-21T05:22:18.652Z,21.35
2023-05-21T05:23:22.975Z,21.90
2023-05-21T05:24:26.285Z,21.50
2023-05-21T05:25:28.579Z,21.85
2023-05-21T05:26:30.943Z,21.65
2023-05-21T05:27:33.526Z,21.33
2023-05-21T05:28:38.126Z,20.85
2023-05-21T05:29:40.771Z,21.98
2023-05-21T05:30:43.108Z,20.67
2023-05-21T05:31:57.382Z,21.98
2023-05-21T05:33:00.178Z,21.58
2023-05-21T05:34:02.689Z,21.88
2023-05-21T05:35:05.800Z,21.45
2023-05-21T05:36:11.783Z,21.38
2023-05-21T05:37:14.202Z,20.88
2023-05-21T05:38:17.406Z,21.08
2023-05-21T05:39:19.735Z,21.08
2023-05-21T05:40:24.052Z,20.58
2023-05-21T05:41:27.136Z,20.52
2023-05-21T05:42:30.844Z,21.48
2023-05-21T05:43:34.862Z,21.50
2023-05-21T05:44:37.411Z,20.02
2023-05-21T05:45:39.991Z,20.50
2023-05-21T05:46:47.530Z,20.10
2023-05-21T05:47:50.055Z,21.52
2023-05-21T05:48:52.393Z,20.70
2023-05-21T05:49:55.070Z,20.40
2023-05-21T05:50:58.036Z,19.33
2023-05-21T05:52:01.812Z,20.40
2023-05-21T05:53:04.151Z,19.27
2023-05-21T05:54:06.764Z,20.90
2023-05-21T05:55:14.466Z,21.15
2023-05-21T05:56:19.935Z,20.33
2023-05-21T05:57:23.822Z,21.10
2023-05-21T05:58:30.123Z,19.83
2023-05-21T05:59:43.095Z,19.95
2023-05-21T06:00:47.107Z,19.70
2023-05-21T06:01:55.632Z,20.15
2023-05-21T06:02:58.168Z,20.38
2023-05-21T06:04:00.982Z,19.42
2023-05-21T06:05:07.680Z,19.48
2023-05-21T06:06:10.237Z,20.23
2023-05-21T06:07:12.750Z,19.60
2023-05-21T06:08:16.234Z,19.70
2023-05-21T06:09:18.634Z,19.67
2023-05-21T06:10:21.097Z,19.83
2023-05-21T06:11:25.801Z,18.42
2023-05-21T06:12:29.375Z,18.73
2023-05-21T06:13:32.293Z,19.90
2023-05-21T06:14:34.653Z,18.48
2023-05-21T06:15:37.188Z,19.58
2023-05-21T06:16:39.959Z,19.00
2023-05-21T06:17:42.451Z,19.23
2023-05-21T06:18:47.489Z,19.75
2023-05-21T06:19:49.970Z,19.55
2023-05-21T06:20:52.454Z,18.98
2023-05-21T06:21:56.297Z,19.40
2023-05-21T06:22:58.663Z,18.70
2023-05-21T06:24:01.965Z,18.60
2023-05-21T06:25:06.123Z,18.50
2023-05-21T06:26:08.546Z,18.55
2023-05-21T06:27:11.216Z,20.08
2023-05-21T06:28:14.459Z,18.10
2023-05-21T06:29:17.645Z,17.63
2023-05-21T06:30:21.860Z,19.20
2023-05-21T06:31:24.834Z,18.30
2023-05-21T06:32:27.343Z,18.27
2023-05-21T06:33:29.907Z,18.77
2023-05-21T06:34:32.783Z,20.48
2023-05-21T06:35:37.578Z,19.02
2023-05-21T06:36:40.478Z,17.67
2023-05-21T06:37:43.461Z,18.40
2023-05-21T06:38:45.827Z,17.80
2023-05-21T06:39:48.261Z,17.90
2023-05-21T06:40:50.670Z,18.30
2023-05-21T06:42:07.020Z,17.92
2023-05-21T06:43:29.372Z,17.48
2023-05-21T06:44:50.943Z,17.27
2023-05-21T06:46:05.664Z,17.27
2023-05-21T06:47:13.468Z,17.77
2023-05-21T06:48:19.002Z,18.13
2023-05-21T06:49:23.071Z,17.60
2023-05-21T06:50:25.488Z,18.38
2023-05-21T06:51:28.322Z,18.15
2023-05-21T06:52:31.968Z,17.90
2023-05-21T06:53:36.090Z,16.73
2023-05-21T06:54:38.655Z,17.50
2023-05-21T06:55:45.644Z,17.73
2023-05-21T06:56:56.361Z,17.83
2023-05-21T06:57:59.108Z,18.23
2023-05-21T06:59:01.801Z,18.60
2023-05-21T07:00:05.893Z,18.20
2023-05-21T07:01:10.172Z,18.42
2023-05-21T07:02:14.176Z,20.35
2023-05-21T07:03:17.491Z,18.13
2023-05-21T07:04:20.092Z,18.65
2023-05-21T07:05:22.672Z,18.35
2023-05-21T07:06:24.985Z,17.88
2023-05-21T07:07:27.809Z,17.88
2023-05-21T07:08:31.490Z,19.55
2023-05-21T07:09:34.603Z,18.48
2023-05-21T07:10:37.019Z,18.73
2023-05-21T07:11:40.880Z,18.63
2023-05-21T07:12:44.706Z,18.98
2023-05-21T07:13:48.380Z,18.23
2023-05-21T07:14:51.342Z,19.17
2023-05-21T07:15:54.958Z,17.52
2023-05-21T07:16:57.343Z,18.77
2023-05-21T07:18:01.245Z,17.83
2023-05-21T07:19:03.631Z,18.17
2023-05-21T07:20:07.982Z,18.45
2023-05-21T07:21:11.333Z,17.70
2023-05-21T07:22:13.920Z,17.95
2023-05-21T07:23:17.441Z,17.83
2023-05-21T07:24:21.562Z,18.02
2023-05-21T07:25:24.096Z,18.23
2023-05-21T07:26:26.885Z,18.40
2023-05-21T07:27:29.760Z,17.98
2023-05-21T07:28:32.300Z,17.88
2023-05-21T07:29:35.497Z,17.60
2023-05-21T07:30:37.948Z,17.77
2023-05-21T07:31:44.860Z,17.80
2023-05-21T07:32:47.229Z,17.65
2023-05-21T07:33:50.020Z,17.67
2023-05-21T07:34:54.478Z,18.15
2023-05-21T07:35:59.284Z,17.58
2023-05-21T07:37:01.656Z,18.00
2023-05-21T07:38:04.153Z,17.40
2023-05-21T07:39:06.774Z,17.85
2023-05-21T07:40:11.141Z,17.65
2023-05-21T07:41:13.746Z,17.80
2023-05-21T07:42:16.285Z,18.15
2023-05-21T07:43:20.137Z,17.23
2023-05-21T07:44:22.482Z,16.98
2023-05-21T07:45:27.531Z,18.13
2023-05-21T07:46:30.179Z,16.45
2023-05-21T07:47:33.678Z,18.48
2023-05-21T07:48:36.281Z,17.38
2023-05-21T07:49:40.062Z,18.42
2023-05-21T07:50:43.091Z,18.13
2023-05-21T07:51:45.919Z,17.90
2023-05-21T07:52:48.714Z,17.45
2023-05-21T07:53:54.447Z,17.92
2023-05-21T07:55:03.270Z,17.20
2023-05-21T07:56:09.240Z,16.75
2023-05-21T07:57:11.618Z,17.60
2023-05-21T07:58:23.809Z,17.05
2023-05-21T07:59:26.188Z,16.75
2023-05-21T08:00:28.877Z,17.17
2023-05-21T08:01:37.672Z,17.95
2023-05-21T08:02:40.515Z,16.73
2023-05-21T08:03:44.121Z,17.40
2023-05-21T08:04:46.635Z,17.15
2023-05-21T08:05:51.058Z,18.17
2023-05-21T08:06:54.107Z,17.60
2023-05-21T08:07:56.868Z,17.60
2023-05-21T08:09:00.606Z,18.80
2023-05-21T08:10:03.667Z,19.27
2023-05-21T08:11:07.189Z,18.83
2023-05-21T08:12:10.551Z,18.30
2023-05-21T08:13:13.431Z,17.90
2023-05-21T08:14:15.954Z,18.00
2023-05-21T08:15:18.426Z,17.85
2023-05-21T08:16:23.639Z,16.98
2023-05-21T08:17:26.305Z,17.80
2023-05-21T08:18:28.792Z,17.05
2023-05-21T08:19:32.781Z,17.58
2023-05-21T08:20:35.793Z,17.80
2023-05-21T08:21:38.358Z,16.08
2023-05-21T08:22:41.456Z,16.10
2023-05-21T08:23:44.619Z,17.15
2023-05-21T08:24:49.695Z,17.38
2023-05-21T08:25:53.565Z,16.77
2023-05-21T08:26:56.736Z,16.80
2023-05-21T08:27:59.535Z,17.25
2023-05-21T08:29:02.563Z,16.92
2023-05-21T08:30:06.174Z,17.55
2023-05-21T08:31:08.540Z,17.38
2023-05-21T08:32:12.132Z,16.77
2023-05-21T08:33:15.256Z,16.65
2023-05-21T08:34:18.800Z,17.58
2023-05-21T08:35:32.317Z,17.80
2023-05-21T08:36:46.318Z,16.83
2023-05-21T08:38:08.553Z,16.58
2023-05-21T08:39:36.955Z,16.75
2023-05-21T08:40:39.678Z,16.55
2023-05-21T08:41:46.664Z,16.75
2023-05-21T08:42:50.056Z,16.15
2023-05-21T08:44:00.455Z,17.50
2023-05-21T08:45:05.523Z,16.83
2023-05-21T08:46:10.183Z,16.88
2023-05-21T08:47:19.038Z,17.25
2023-05-21T08:48:23.770Z,16.50
2023-05-21T08:49:31.079Z,16.88
2023-05-21T08:50:33.560Z,16.42
2023-05-21T08:51:41.950Z,16.10
2023-05-21T08:52:44.403Z,17.23
2023-05-21T08:53:47.192Z,16.35
2023-05-21T08:54:53.417Z,16.42
2023-05-21T08:55:57.473Z,16.20
2023-05-21T08:57:06.194Z,16.48
2023-05-21T08:58:13.870Z,16.85
2023-05-21T08:59:18.626Z,15.95
2023-05-21T09:00:23.088Z,16.58
2023-05-21T09:01:27.922Z,16.15
2023-05-21T09:02:44.223Z,16.65
2023-05-21T09:03:47.523Z,15.98
2023-05-21T09:04:50.347Z,16.55
2023-05-21T09:05:53.947Z,16.08
2023-05-21T09:06:58.254Z,15.63
2023-05-21T09:08:31.423Z,15.80
2023-05-21T09:09:58.554Z,16.45
2023-05-21T09:11:05.508Z,15.68
2023-05-21T09:12:13.447Z,15.05
2023-05-21T09:13:18.149Z,15.38
2023-05-21T09:14:21.672Z,16.10
2023-05-21T09:15:35.351Z,15.43
2023-05-21T09:16:37.736Z,15.63
2023-05-21T09:17:40.236Z,15.55
2023-05-21T09:18:59.627Z,14.90
2023-05-21T09:20:15.186Z,14.88
2023-05-21T09:21:32.037Z,15.30
2023-05-21T09:22:50.768Z,14.13
2023-05-21T09:23:58.513Z,14.95
2023-05-21T09:25:05.311Z,14.90
2023-05-21T09:26:13.007Z,15.38
2023-05-21T09:27:18.632Z,14.27
2023-05-21T09:28:21.253Z,14.95
2023-05-21T09:29:26.534Z,14.82
2023-05-21T09:30:31.832Z,15.63
2023-05-21T09:31:37.091Z,14.95
2023-05-21T09:32:40.419Z,15.00
2023-05-21T09:33:50.426Z,14.50
2023-05-21T09:34:54.718Z,15.20
2023-05-21T09:35:57.246Z,15.00
2023-05-21T09:37:03.655Z,14.90
2023-05-21T09:38:10.280Z,14.95
2023-05-21T09:39:27.450Z,14.70
2023-05-21T09:40:29.896Z,14.45
2023-05-21T09:41:36.571Z,15.25
2023-05-21T09:42:41.085Z,14.60
2023-05-21T09:43:44.716Z,14.45
2023-05-21T09:44:48.137Z,14.63
2023-05-21T09:45:52.225Z,15.18
2023-05-21T09:47:05.740Z,15.48
2023-05-21T09:48:08.197Z,14.90
2023-05-21T09:49:25.058Z,15.27
2023-05-21T09:50:28.734Z,14.30
2023-05-21T09:51:32.761Z,14.43
2023-05-21T09:52:37.859Z,14.27
2023-05-21T09:53:54.353Z,14.52
2023-05-21T09:54:57.799Z,14.27
2023-05-21T09:56:00.264Z,14.90
2023-05-21T09:57:03.161Z,14.02
2023-05-21T09:58:06.252Z,15.13
2023-05-21T09:59:08.603Z,13.98
2023-05-21T10:00:21.446Z,15.00
2023-05-21T10:01:25.069Z,13.95
2023-05-21T10:02:30.255Z,13.70
2023-05-21T10:03:38.853Z,13.20
2023-05-21T10:04:44.909Z,14.35
2023-05-21T10:05:47.294Z,14.18
2023-05-21T10:06:50.853Z,13.75
2023-05-21T10:07:54.656Z,13.38
2023-05-21T10:09:00.042Z,14.15
2023-05-21T10:10:04.543Z,13.88
2023-05-21T10:11:07.361Z,14.07
2023-05-21T10:12:11.089Z,13.88
2023-05-21T10:13:15.750Z,13.98
2023-05-21T10:14:22.882Z,14.48
2023-05-21T10:15:26.026Z,14.45
2023-05-21T10:16:29.759Z,14.35
2023-05-21T10:17:32.729Z,14.40
2023-05-21T10:18:37.961Z,13.90
2023-05-21T10:19:41.900Z,14.05
2023-05-21T10:20:45.246Z,13.90
2023-05-21T10:21:48.580Z,12.73
2023-05-21T10:22:52.227Z,13.63
2023-05-21T10:23:58.138Z,13.32
2023-05-21T10:25:03.463Z,13.25
2023-05-21T10:26:07.247Z,14.10
2023-05-21T10:27:10.503Z,13.95
2023-05-21T10:28:18.234Z,12.75
2023-05-21T10:29:21.851Z,12.02
2023-05-21T10:30:24.881Z,13.30
2023-05-21T10:31:28.174Z,14.13
2023-05-21T10:32:31.940Z,12.68
2023-05-21T10:33:36.082Z,12.57
2023-05-21T10:34:38.690Z,13.10
2023-05-21T10:35:41.450Z,13.57
2023-05-21T10:36:44.944Z,13.02
2023-05-21T10:37:47.713Z,13.07
2023-05-21T10:38:50.149Z,13.20
2023-05-21T10:39:52.696Z,12.93
2023-05-21T10:40:55.974Z,12.63
2023-05-21T10:42:12.663Z,12.30
2023-05-21T10:43:56.802Z,12.75
2023-05-21T10:45:26.672Z,11.93
2023-05-21T10:47:09.598Z,12.10
2023-05-21T10:48:30.055Z,14.07
2023-05-21T10:49:53.593Z,15.15
2023-05-21T10:51:08.380Z,16.10
2023-05-21T10:52:35.605Z,15.73
2023-05-21T10:53:56.537Z,16.83
2023-05-21T10:55:23.739Z,17.00
2023-05-21T10:56:28.834Z,17.77
2023-05-21T10:58:08.211Z,18.55
2023-05-21T10:59:15.507Z,18.25
2023-05-21T11:00:20.710Z,18.30
2023-05-21T11:01:23.538Z,18.27
2023-05-21T11:02:27.606Z,17.83
2023-05-21T11:03:34.102Z,17.00
2023-05-21T11:04:42.553Z,17.17
2023-05-21T11:05:57.614Z,16.05
2023-05-21T11:06:59.956Z,16.00
2023-05-21T11:08:03.787Z,15.63
2023-05-21T11:09:15.574Z,15.00
2023-05-21T11:10:32.349Z,14.77
2023-05-21T11:11:51.474Z,15.00
2023-05-21T11:13:16.645Z,15.20
2023-05-21T11:14:41.051Z,15.13
2023-05-21T11:15:58.798Z,15.50
2023-05-21T11:17:07.934Z,14.95
2023-05-21T11:18:10.367Z,14.70
2023-05-21T11:19:19.190Z,13.45
2023-05-21T11:20:23.019Z,12.63
2023-05-21T11:21:30.696Z,12.88
2023-05-21T11:22:36.582Z,12.07
2023-05-21T11:23:51.516Z,11.90
2023-05-21T11:24:55.710Z,9.75
2023-05-21T11:26:02.482Z,9.63
2023-05-21T11:27:07.020Z,8.52
2023-05-21T11:28:09.785Z,10.45
2023-05-21T11:29:12.224Z,9.63
2023-05-21T11:30:19.108Z,9.88
2023-05-21T11:31:28.106Z,9.63
2023-05-21T11:32:31.804Z,9.27
2023-05-21T11:33:34.184Z,9.50
2023-05-21T11:34:39.829Z,8.93
2023-05-21T11:35:44.801Z,9.50
2023-05-21T11:36:48.961Z,9.63
2023-05-21T11:37:54.320Z,9.88
2023-05-21T11:39:11.811Z,9.38
2023-05-21T11:40:30.385Z,10.18
2023-05-21T11:41:50.334Z,10.65
2023-05-21T11:42:54.831Z,11.00
2023-05-21T11:44:03.066Z,11.18
2023-05-21T11:45:05.903Z,11.40
2023-05-21T11:46:10.216Z,12.23
2023-05-21T11:47:21.263Z,12.13
2023-05-21T11:48:27.119Z,12.25
2023-05-21T11:49:31.791Z,12.60
2023-05-21T11:50:35.155Z,12.52
2023-05-21T11:51:37.942Z,12.35
2023-05-21T11:52:41.553Z,12.38
2023-05-21T11:53:44.497Z,12.73
2023-05-21T11:54:50.950Z,13.10
2023-05-21T11:55:57.736Z,11.88
2023-05-21T11:57:03.681Z,11.93
2023-05-21T11:58:08.753Z,12.00
2023-05-21T11:59:18.835Z,11.23
2023-05-21T12:00:22.042Z,11.63
2023-05-21T12:01:25.006Z,10.63
2023-05-21T12:02:32.645Z,9.93
2023-05-21T12:03:35.680Z,10.23
2023-05-21T12:04:38.338Z,10.13
2023-05-21T12:05:49.976Z,8.93
2023-05-21T12:06:53.390Z,9.57
2023-05-21T12:07:56.839Z,10.38
2023-05-21T12:08:59.257Z,9.68
2023-05-21T12:10:01.572Z,9.98
2023-05-21T12:11:03.918Z,10.52
2023-05-21T12:12:08.442Z,10.10
2023-05-21T12:13:10.961Z,10.63
2023-05-21T12:14:14.238Z,12.13
2023-05-21T12:15:18.266Z,11.60
2023-05-21T12:16:21.083Z,11.63
2023-05-21T12:17:24.791Z,12.10
2023-05-21T12:18:27.264Z,11.27
2023-05-21T12:19:33.599Z,11.30
2023-05-21T12:20:36.061Z,11.18
2023-05-21T12:21:39.868Z,12.80
2023-05-21T12:22:44.947Z,10.77
2023-05-21T12:23:47.357Z,9.95
2023-05-21T12:24:49.732Z,10.68
2023-05-21T12:25:53.881Z,10.18
2023-05-21T12:26:59.662Z,10.25
2023-05-21T12:28:03.901Z,10.18
2023-05-21T12:29:07.674Z,9.82
2023-05-21T12:30:10.281Z,10.07
2023-05-21T12:31:16.416Z,9.82
2023-05-21T12:32:20.127Z,9.63
2023-05-21T12:33:25.018Z,10.75
2023-05-21T12:34:48.888Z,10.15
2023-05-21T12:35:52.658Z,10.52
2023-05-21T12:36:55.072Z,11.30
2023-05-21T12:37:57.913Z,10.88
2023-05-21T12:39:00.296Z,11.55
2023-05-21T12:40:08.290Z,10.82
2023-05-21T12:41:11.235Z,9.70
2023-05-21T12:42:15.694Z,10.10
2023-05-21T12:43:18.004Z,9.65
2023-05-21T12:44:20.279Z,9.25
2023-05-21T12:45:22.876Z,9.70
2023-05-21T12:46:25.338Z,8.60
2023-05-21T12:47:28.481Z,9.20
2023-05-21T12:48:30.833Z,9.52
2023-05-21T12:49:43.143Z,10.10
2023-05-21T12:50:45.732Z,9.25
2023-05-21T12:51:50.369Z,9.60
2023-05-21T12:52:58.222Z,9.85
2023-05-21T12:54:02.449Z,10.23
2023-05-21T12:55:06.222Z,10.18
2023-05-21T12:56:13.755Z,10.48
2023-05-21T12:57:18.135Z,11.25
2023-05-21T12:58:22.536Z,10.48
2023-05-21T12:59:24.893Z,10.63
2023-05-21T13:00:27.281Z,10.50
2023-05-21T13:01:30.603Z,10.88
2023-05-21T13:02:40.053Z,10.45
2023-05-21T13:03:43.098Z,10.52
2023-05-21T13:04:45.624Z,10.82
2023-05-21T13:05:48.072Z,10.95
2023-05-21T13:06:50.407Z,11.98
2023-05-21T13:07:53.060Z,11.25
2023-05-21T13:08:56.139Z,11.32
2023-05-21T13:09:59.590Z,11.27
2023-05-21T13:11:02.952Z,10.57
2023-05-21T13:12:05.506Z,11.02
2023-05-21T13:13:07.784Z,11.05
2023-05-21T13:14:10.162Z,11.68
2023-05-21T13:15:13.074Z,12.20
2023-05-21T13:16:15.496Z,11.95
2023-05-21T13:17:18.705Z,13.00
2023-05-21T13:18:22.134Z,13.18
2023-05-21T13:19:24.565Z,12.85
2023-05-21T13:20:28.221Z,12.32
2023-05-21T13:21:31.382Z,12.68
2023-05-21T13:22:33.787Z,14.43
2023-05-21T13:23:36.114Z,13.10
2023-05-21T13:24:40.023Z,13.52
2023-05-21T13:25:42.404Z,13.40
2023-05-21T13:26:45.009Z,13.90
2023-05-21T13:27:49.011Z,13.38
2023-05-21T13:28:51.306Z,13.18
2023-05-21T13:29:53.660Z,13.10
2023-05-21T13:30:56.634Z,13.52
2023-05-21T13:31:59.015Z,12.98
2023-05-21T13:33:01.536Z,13.05
2023-05-21T13:34:05.565Z,13.30
2023-05-21T13:35:08.957Z,13.10
2023-05-21T13:36:11.379Z,13.05
2023-05-21T13:37:14.223Z,13.32
2023-05-21T13:38:16.565Z,14.60
2023-05-21T13:39:18.968Z,13.50
2023-05-21T13:40:22.918Z,13.15
2023-05-21T13:41:26.402Z,14.65
2023-05-21T13:42:28.846Z,13.30
2023-05-21T13:43:31.205Z,13.18
2023-05-21T13:44:36.401Z,14.38
2023-05-21T13:45:39.150Z,14.02
2023-05-21T13:46:41.888Z,13.32
2023-05-21T13:47:46.631Z,13.75
2023-05-21T13:48:49.019Z,12.82
2023-05-21T13:49:51.617Z,12.57
2023-05-21T13:50:53.969Z,12.38
2023-05-21T13:51:58.263Z,13.10
2023-05-21T13:53:00.791Z,12.80
2023-05-21T13:54:03.291Z,12.65
2023-05-21T13:55:06.157Z,12.90
2023-05-21T13:56:08.492Z,12.45
2023-05-21T13:57:11.064Z,13.43